sensor_id;sensor_type;location;lat;lon;timestamp;temperature;humidity
78647;DHT22;67961;43.460;3.762;2023-07-31T00:01:18;23.70;48.10
78647;DHT22;67961;43.460;3.762;2023-07-31T00:03:45;23.70;48.00
78647;DHT22;67961;43.460;3.762;2023-07-31T00:06:10;23.70;48.30
78647;DHT22;67961;43.460;3.762;2023-07-31T00:08:36;23.60;48.70
78647;DHT22;67961;43.460;3.762;2023-07-31T00:11:01;23.60;48.40
78647;DHT22;67961;43.460;3.762;2023-07-31T00:13:27;23.60;48.50
78647;DHT22;67961;43.460;3.762;2023-07-31T00:15:53;23.50;48.80
78647;DHT22;67961;43.460;3.762;2023-07-31T00:18:18;23.40;49.10
78647;DHT22;67961;43.460;3.762;2023-07-31T00:20:44;23.40;49.00
78647;DHT22;67961;43.460;3.762;2023-07-31T00:23:10;23.30;49.30
78647;DHT22;67961;43.460;3.762;2023-07-31T00:25:35;23.30;49.30
78647;DHT22;67961;43.460;3.762;2023-07-31T00:28:01;23.20;49.30
78647;DHT22;67961;43.460;3.762;2023-07-31T00:30:27;23.20;49.50
78647;DHT22;67961;43.460;3.762;2023-07-31T00:32:52;23.20;49.40
78647;DHT22;67961;43.460;3.762;2023-07-31T00:35:18;23.10;49.40
78647;DHT22;67961;43.460;3.762;2023-07-31T00:37:44;23.10;49.60
78647;DHT22;67961;43.460;3.762;2023-07-31T00:40:09;23.10;49.70
78647;DHT22;67961;43.460;3.762;2023-07-31T00:42:35;23.10;49.60
78647;DHT22;67961;43.460;3.762;2023-07-31T00:45:01;23.00;50.00
78647;DHT22;67961;43.460;3.762;2023-07-31T00:47:27;23.00;49.70
78647;DHT22;67961;43.460;3.762;2023-07-31T00:49:52;23.00;49.70
78647;DHT22;67961;43.460;3.762;2023-07-31T00:52:18;23.00;49.80
78647;DHT22;67961;43.460;3.762;2023-07-31T00:54:44;23.00;49.90
78647;DHT22;67961;43.460;3.762;2023-07-31T00:57:10;23.10;49.80
78647;DHT22;67961;43.460;3.762;2023-07-31T00:59:36;23.10;49.80
78647;DHT22;67961;43.460;3.762;2023-07-31T01:02:02;23.00;50.00
78647;DHT22;67961;43.460;3.762;2023-07-31T01:04:29;23.00;49.90
78647;DHT22;67961;43.460;3.762;2023-07-31T01:09:52;22.80;50.20
78647;DHT22;67961;43.460;3.762;2023-07-31T01:12:24;22.80;50.40
78647;DHT22;67961;43.460;3.762;2023-07-31T01:15:08;22.70;50.60
78647;DHT22;67961;43.460;3.762;2023-07-31T01:17:38;22.60;50.80
78647;DHT22;67961;43.460;3.762;2023-07-31T01:20:11;22.50;51.10
78647;DHT22;67961;43.460;3.762;2023-07-31T01:31:22;22.60;50.80
78647;DHT22;67961;43.460;3.762;2023-07-31T01:33:49;22.60;50.90
78647;DHT22;67961;43.460;3.762;2023-07-31T01:36:15;22.50;50.90
78647;DHT22;67961;43.460;3.762;2023-07-31T01:38:41;22.50;51.00
78647;DHT22;67961;43.460;3.762;2023-07-31T01:41:07;22.50;50.80
78647;DHT22;67961;43.460;3.762;2023-07-31T01:43:32;22.50;50.70
78647;DHT22;67961;43.460;3.762;2023-07-31T01:45:58;22.60;51.00
78647;DHT22;67961;43.460;3.762;2023-07-31T01:48:24;22.60;50.70
78647;DHT22;67961;43.460;3.762;2023-07-31T01:50:49;22.60;50.80
78647;DHT22;67961;43.460;3.762;2023-07-31T01:53:15;22.70;50.70
78647;DHT22;67961;43.460;3.762;2023-07-31T01:55:41;22.70;50.80
78647;DHT22;67961;43.460;3.762;2023-07-31T01:58:06;22.60;50.80
78647;DHT22;67961;43.460;3.762;2023-07-31T02:00:32;22.50;51.10
78647;DHT22;67961;43.460;3.762;2023-07-31T02:02:59;22.50;50.80
78647;DHT22;67961;43.460;3.762;2023-07-31T02:05:25;22.40;51.20
78647;DHT22;67961;43.460;3.762;2023-07-31T02:07:50;22.30;51.40
78647;DHT22;67961;43.460;3.762;2023-07-31T02:10:16;22.30;51.20
78647;DHT22;67961;43.460;3.762;2023-07-31T02:12:42;22.40;51.40
78647;DHT22;67961;43.460;3.762;2023-07-31T02:15:08;22.40;51.20
78647;DHT22;67961;43.460;3.762;2023-07-31T02:17:33;22.20;51.50
78647;DHT22;67961;43.460;3.762;2023-07-31T02:20:00;22.20;51.50
78647;DHT22;67961;43.460;3.762;2023-07-31T02:22:25;22.10;51.80
78647;DHT22;67961;43.460;3.762;2023-07-31T02:24:51;22.00;52.20
78647;DHT22;67961;43.460;3.762;2023-07-31T02:27:16;22.10;52.20
78647;DHT22;67961;43.460;3.762;2023-07-31T02:29:42;22.00;52.40
78647;DHT22;67961;43.460;3.762;2023-07-31T02:32:10;21.90;52.40
78647;DHT22;67961;43.460;3.762;2023-07-31T02:34:36;21.90;52.30
78647;DHT22;67961;43.460;3.762;2023-07-31T02:37:02;22.00;52.50
78647;DHT22;67961;43.460;3.762;2023-07-31T02:39:27;22.00;52.20
78647;DHT22;67961;43.460;3.762;2023-07-31T02:41:53;21.90;52.60
78647;DHT22;67961;43.460;3.762;2023-07-31T02:44:18;21.90;52.50
78647;DHT22;67961;43.460;3.762;2023-07-31T02:46:45;21.80;52.60
78647;DHT22;67961;43.460;3.762;2023-07-31T02:49:11;21.80;52.70
78647;DHT22;67961;43.460;3.762;2023-07-31T02:51:37;21.90;52.80
78647;DHT22;67961;43.460;3.762;2023-07-31T02:54:02;21.90;52.50
78647;DHT22;67961;43.460;3.762;2023-07-31T02:56:28;21.90;52.30
78647;DHT22;67961;43.460;3.762;2023-07-31T02:58:53;21.90;52.70
78647;DHT22;67961;43.460;3.762;2023-07-31T03:01:19;21.90;53.00
78647;DHT22;67961;43.460;3.762;2023-07-31T03:03:45;21.90;52.80
78647;DHT22;67961;43.460;3.762;2023-07-31T03:06:10;21.90;52.70
78647;DHT22;67961;43.460;3.762;2023-07-31T03:08:36;21.90;52.70
78647;DHT22;67961;43.460;3.762;2023-07-31T03:11:01;21.90;53.00
78647;DHT22;67961;43.460;3.762;2023-07-31T03:13:27;21.70;53.10
78647;DHT22;67961;43.460;3.762;2023-07-31T03:15:53;21.70;52.90
78647;DHT22;67961;43.460;3.762;2023-07-31T03:18:18;21.70;53.00
78647;DHT22;67961;43.460;3.762;2023-07-31T03:20:44;21.70;53.00
78647;DHT22;67961;43.460;3.762;2023-07-31T03:23:10;21.70;53.10
78647;DHT22;67961;43.460;3.762;2023-07-31T03:25:36;21.70;53.20
78647;DHT22;67961;43.460;3.762;2023-07-31T03:28:01;21.50;53.40
78647;DHT22;67961;43.460;3.762;2023-07-31T03:30:27;21.50;53.50
78647;DHT22;67961;43.460;3.762;2023-07-31T03:32:53;21.50;53.30
78647;DHT22;67961;43.460;3.762;2023-07-31T03:35:18;21.50;53.50
78647;DHT22;67961;43.460;3.762;2023-07-31T03:37:44;21.40;53.60
78647;DHT22;67961;43.460;3.762;2023-07-31T03:40:10;21.40;53.50
78647;DHT22;67961;43.460;3.762;2023-07-31T03:42:36;21.40;53.70
78647;DHT22;67961;43.460;3.762;2023-07-31T03:45:01;21.30;54.00
78647;DHT22;67961;43.460;3.762;2023-07-31T03:47:27;21.30;53.90
78647;DHT22;67961;43.460;3.762;2023-07-31T03:49:53;21.30;54.00
78647;DHT22;67961;43.460;3.762;2023-07-31T03:52:18;21.30;53.90
78647;DHT22;67961;43.460;3.762;2023-07-31T03:54:44;21.30;53.80
78647;DHT22;67961;43.460;3.762;2023-07-31T03:57:10;21.30;53.90
78647;DHT22;67961;43.460;3.762;2023-07-31T03:59:36;21.30;54.10
78647;DHT22;67961;43.460;3.762;2023-07-31T04:02:04;21.30;54.10
78647;DHT22;67961;43.460;3.762;2023-07-31T04:04:30;21.30;54.00
78647;DHT22;67961;43.460;3.762;2023-07-31T04:06:56;21.20;54.00
78647;DHT22;67961;43.460;3.762;2023-07-31T04:09:21;21.20;54.30
78647;DHT22;67961;43.460;3.762;2023-07-31T04:11:47;21.10;54.40
78647;DHT22;67961;43.460;3.762;2023-07-31T04:14:12;21.10;54.60
78647;DHT22;67961;43.460;3.762;2023-07-31T04:16:38;21.10;54.70
78647;DHT22;67961;43.460;3.762;2023-07-31T04:19:04;21.30;54.30
78647;DHT22;67961;43.460;3.762;2023-07-31T04:21:29;21.20;54.20
78647;DHT22;67961;43.460;3.762;2023-07-31T04:23:55;21.10;54.20
78647;DHT22;67961;43.460;3.762;2023-07-31T04:26:21;21.10;54.30
78647;DHT22;67961;43.460;3.762;2023-07-31T04:28:47;21.10;54.20
78647;DHT22;67961;43.460;3.762;2023-07-31T04:31:13;21.30;54.10
78647;DHT22;67961;43.460;3.762;2023-07-31T04:33:38;21.30;54.10
78647;DHT22;67961;43.460;3.762;2023-07-31T04:36:05;21.20;54.50
78647;DHT22;67961;43.460;3.762;2023-07-31T04:38:30;21.20;54.50
78647;DHT22;67961;43.460;3.762;2023-07-31T04:40:56;21.10;54.50
78647;DHT22;67961;43.460;3.762;2023-07-31T04:43:22;21.20;54.20
78647;DHT22;67961;43.460;3.762;2023-07-31T04:45:48;21.30;54.40
78647;DHT22;67961;43.460;3.762;2023-07-31T04:48:14;21.30;54.30
78647;DHT22;67961;43.460;3.762;2023-07-31T04:50:40;21.40;54.20
78647;DHT22;67961;43.460;3.762;2023-07-31T04:53:05;21.40;53.90
78647;DHT22;67961;43.460;3.762;2023-07-31T04:55:31;21.40;54.20
78647;DHT22;67961;43.460;3.762;2023-07-31T04:57:59;21.40;54.10
78647;DHT22;67961;43.460;3.762;2023-07-31T05:00:24;21.40;54.00
78647;DHT22;67961;43.460;3.762;2023-07-31T05:02:50;21.30;54.40
78647;DHT22;67961;43.460;3.762;2023-07-31T05:05:16;21.40;54.30
78647;DHT22;67961;43.460;3.762;2023-07-31T05:07:41;21.40;54.30
78647;DHT22;67961;43.460;3.762;2023-07-31T05:10:07;21.40;54.40
78647;DHT22;67961;43.460;3.762;2023-07-31T05:12:33;21.50;54.50
78647;DHT22;67961;43.460;3.762;2023-07-31T05:14:58;21.50;54.30
78647;DHT22;67961;43.460;3.762;2023-07-31T05:17:24;21.50;54.40
78647;DHT22;67961;43.460;3.762;2023-07-31T05:19:50;21.70;54.10
78647;DHT22;67961;43.460;3.762;2023-07-31T05:22:15;21.80;53.80
78647;DHT22;67961;43.460;3.762;2023-07-31T05:24:41;21.90;53.20
78647;DHT22;67961;43.460;3.762;2023-07-31T05:27:07;22.00;53.10
78647;DHT22;67961;43.460;3.762;2023-07-31T05:29:32;22.10;52.80
78647;DHT22;67961;43.460;3.762;2023-07-31T05:31:58;22.30;52.70
78647;DHT22;67961;43.460;3.762;2023-07-31T05:34:24;22.50;52.20
78647;DHT22;67961;43.460;3.762;2023-07-31T05:36:49;22.50;52.00
78647;DHT22;67961;43.460;3.762;2023-07-31T05:39:15;22.60;52.30
78647;DHT22;67961;43.460;3.762;2023-07-31T05:41:40;22.80;51.50
78647;DHT22;67961;43.460;3.762;2023-07-31T05:44:06;22.80;51.60
78647;DHT22;67961;43.460;3.762;2023-07-31T05:46:32;22.80;52.00
78647;DHT22;67961;43.460;3.762;2023-07-31T05:48:58;23.10;51.40
78647;DHT22;67961;43.460;3.762;2023-07-31T05:51:26;23.00;51.50
78647;DHT22;67961;43.460;3.762;2023-07-31T05:53:52;23.00;52.10
78647;DHT22;67961;43.460;3.762;2023-07-31T05:56:17;23.20;51.60
78647;DHT22;67961;43.460;3.762;2023-07-31T05:58:43;23.20;51.40
78647;DHT22;67961;43.460;3.762;2023-07-31T06:01:08;23.40;50.60
78647;DHT22;67961;43.460;3.762;2023-07-31T06:03:34;23.30;50.80
78647;DHT22;67961;43.460;3.762;2023-07-31T06:06:00;23.20;51.00
78647;DHT22;67961;43.460;3.762;2023-07-31T06:08:25;23.00;51.30
78647;DHT22;67961;43.460;3.762;2023-07-31T06:10:51;23.00;51.20
78647;DHT22;67961;43.460;3.762;2023-07-31T06:13:17;23.20;51.20
78647;DHT22;67961;43.460;3.762;2023-07-31T06:15:42;23.30;51.30
78647;DHT22;67961;43.460;3.762;2023-07-31T06:18:08;23.40;50.70
78647;DHT22;67961;43.460;3.762;2023-07-31T06:20:34;23.40;50.50
78647;DHT22;67961;43.460;3.762;2023-07-31T06:23:00;23.40;50.60
78647;DHT22;67961;43.460;3.762;2023-07-31T06:25:26;23.50;50.20
78647;DHT22;67961;43.460;3.762;2023-07-31T06:27:51;23.40;50.40
78647;DHT22;67961;43.460;3.762;2023-07-31T06:30:17;23.40;50.30
78647;DHT22;67961;43.460;3.762;2023-07-31T06:32:42;23.50;50.50
78647;DHT22;67961;43.460;3.762;2023-07-31T06:35:08;23.60;50.20
78647;DHT22;67961;43.460;3.762;2023-07-31T06:37:34;23.60;50.30
78647;DHT22;67961;43.460;3.762;2023-07-31T06:40:00;23.60;50.40
78647;DHT22;67961;43.460;3.762;2023-07-31T06:42:26;23.60;50.60
78647;DHT22;67961;43.460;3.762;2023-07-31T06:44:52;23.60;50.30
78647;DHT22;67961;43.460;3.762;2023-07-31T06:47:17;23.80;50.10
78647;DHT22;67961;43.460;3.762;2023-07-31T06:49:43;23.70;50.40
78647;DHT22;67961;43.460;3.762;2023-07-31T06:52:09;23.80;50.40
78647;DHT22;67961;43.460;3.762;2023-07-31T06:54:36;23.90;50.20
78647;DHT22;67961;43.460;3.762;2023-07-31T06:57:02;24.00;49.80
78647;DHT22;67961;43.460;3.762;2023-07-31T06:59:27;24.00;49.80
78647;DHT22;67961;43.460;3.762;2023-07-31T07:01:53;24.00;49.80
78647;DHT22;67961;43.460;3.762;2023-07-31T07:04:18;24.10;49.80
78647;DHT22;67961;43.460;3.762;2023-07-31T07:06:44;24.20;49.70
78647;DHT22;67961;43.460;3.762;2023-07-31T07:09:10;24.30;49.30
78647;DHT22;67961;43.460;3.762;2023-07-31T07:11:35;24.40;49.40
78647;DHT22;67961;43.460;3.762;2023-07-31T07:14:02;24.50;48.80
78647;DHT22;67961;43.460;3.762;2023-07-31T07:16:29;24.70;48.70
78647;DHT22;67961;43.460;3.762;2023-07-31T07:18:54;24.70;48.60
78647;DHT22;67961;43.460;3.762;2023-07-31T07:21:20;24.90;48.70
78647;DHT22;67961;43.460;3.762;2023-07-31T07:23:46;25.00;48.00
78647;DHT22;67961;43.460;3.762;2023-07-31T07:26:11;25.40;47.30
78647;DHT22;67961;43.460;3.762;2023-07-31T07:28:37;25.50;47.10
78647;DHT22;67961;43.460;3.762;2023-07-31T07:31:03;25.60;47.10
78647;DHT22;67961;43.460;3.762;2023-07-31T07:33:28;25.60;46.90
78647;DHT22;67961;43.460;3.762;2023-07-31T07:35:54;25.80;46.60
78647;DHT22;67961;43.460;3.762;2023-07-31T07:38:20;26.00;46.40
78647;DHT22;67961;43.460;3.762;2023-07-31T07:40:46;26.10;45.80
78647;DHT22;67961;43.460;3.762;2023-07-31T07:43:16;26.40;44.90
78647;DHT22;67961;43.460;3.762;2023-07-31T07:45:41;27.20;43.70
78647;DHT22;67961;43.460;3.762;2023-07-31T07:48:07;27.10;43.60
78647;DHT22;67961;43.460;3.762;2023-07-31T07:50:32;26.90;43.70
78647;DHT22;67961;43.460;3.762;2023-07-31T07:52:58;26.90;44.10
78647;DHT22;67961;43.460;3.762;2023-07-31T07:55:24;27.10;42.90
78647;DHT22;67961;43.460;3.762;2023-07-31T07:57:49;27.10;42.30
78647;DHT22;67961;43.460;3.762;2023-07-31T08:00:16;27.20;42.00
78647;DHT22;67961;43.460;3.762;2023-07-31T08:02:43;27.20;42.70
78647;DHT22;67961;43.460;3.762;2023-07-31T08:05:08;27.30;42.20
78647;DHT22;67961;43.460;3.762;2023-07-31T08:07:34;27.50;42.10
78647;DHT22;67961;43.460;3.762;2023-07-31T08:10:00;27.70;41.00
78647;DHT22;67961;43.460;3.762;2023-07-31T08:12:25;28.30;40.60
78647;DHT22;67961;43.460;3.762;2023-07-31T08:14:51;28.60;40.90
78647;DHT22;67961;43.460;3.762;2023-07-31T08:17:17;28.60;41.50
78647;DHT22;67961;43.460;3.762;2023-07-31T08:19:43;28.70;40.60
78647;DHT22;67961;43.460;3.762;2023-07-31T08:22:09;29.00;39.70
78647;DHT22;67961;43.460;3.762;2023-07-31T08:24:35;29.10;39.20
78647;DHT22;67961;43.460;3.762;2023-07-31T08:27:00;29.20;39.80
78647;DHT22;67961;43.460;3.762;2023-07-31T08:29:26;29.50;39.10
78647;DHT22;67961;43.460;3.762;2023-07-31T08:31:52;29.70;38.50
78647;DHT22;67961;43.460;3.762;2023-07-31T08:34:17;30.00;39.00
78647;DHT22;67961;43.460;3.762;2023-07-31T08:36:43;30.10;38.40
78647;DHT22;67961;43.460;3.762;2023-07-31T08:39:09;30.30;38.90
78647;DHT22;67961;43.460;3.762;2023-07-31T08:41:40;30.50;36.70
78647;DHT22;67961;43.460;3.762;2023-07-31T08:44:10;30.60;36.30
78647;DHT22;67961;43.460;3.762;2023-07-31T08:46:37;30.80;36.40
78647;DHT22;67961;43.460;3.762;2023-07-31T08:49:07;30.90;36.80
78647;DHT22;67961;43.460;3.762;2023-07-31T08:51:36;31.20;35.90
78647;DHT22;67961;43.460;3.762;2023-07-31T08:54:02;31.30;35.30
78647;DHT22;67961;43.460;3.762;2023-07-31T08:56:30;31.50;36.40
78647;DHT22;67961;43.460;3.762;2023-07-31T08:58:58;31.30;35.00
78647;DHT22;67961;43.460;3.762;2023-07-31T09:01:24;31.00;34.20
78647;DHT22;67961;43.460;3.762;2023-07-31T09:03:51;31.00;35.60
78647;DHT22;67961;43.460;3.762;2023-07-31T09:06:18;31.30;36.10
78647;DHT22;67961;43.460;3.762;2023-07-31T09:08:46;31.50;34.40
78647;DHT22;67961;43.460;3.762;2023-07-31T09:11:12;31.70;35.60
78647;DHT22;67961;43.460;3.762;2023-07-31T09:13:40;31.90;34.90
78647;DHT22;67961;43.460;3.762;2023-07-31T09:16:07;32.10;34.70
78647;DHT22;67961;43.460;3.762;2023-07-31T09:18:53;32.20;34.10
78647;DHT22;67961;43.460;3.762;2023-07-31T09:21:19;32.40;34.00
78647;DHT22;67961;43.460;3.762;2023-07-31T09:23:45;32.70;33.30
78647;DHT22;67961;43.460;3.762;2023-07-31T09:26:33;33.10;33.30
78647;DHT22;67961;43.460;3.762;2023-07-31T09:29:00;33.20;32.70
78647;DHT22;67961;43.460;3.762;2023-07-31T09:31:52;33.10;32.50
78647;DHT22;67961;43.460;3.762;2023-07-31T09:34:18;33.30;32.40
78647;DHT22;67961;43.460;3.762;2023-07-31T09:36:49;33.40;32.30
78647;DHT22;67961;43.460;3.762;2023-07-31T09:39:16;33.20;32.80
78647;DHT22;67961;43.460;3.762;2023-07-31T09:41:44;33.40;32.60
78647;DHT22;67961;43.460;3.762;2023-07-31T09:44:11;33.60;32.30
78647;DHT22;67961;43.460;3.762;2023-07-31T09:46:37;33.60;32.20
78647;DHT22;67961;43.460;3.762;2023-07-31T09:49:09;33.60;32.10
78647;DHT22;67961;43.460;3.762;2023-07-31T09:51:37;34.00;32.20
78647;DHT22;67961;43.460;3.762;2023-07-31T09:54:12;34.10;32.00
78647;DHT22;67961;43.460;3.762;2023-07-31T09:56:44;34.20;31.50
78647;DHT22;67961;43.460;3.762;2023-07-31T09:59:15;34.20;31.50
78647;DHT22;67961;43.460;3.762;2023-07-31T10:01:42;34.10;31.60
78647;DHT22;67961;43.460;3.762;2023-07-31T10:04:09;34.00;31.80
78647;DHT22;67961;43.460;3.762;2023-07-31T10:06:36;34.00;31.30
78647;DHT22;67961;43.460;3.762;2023-07-31T10:09:10;34.00;31.10
78647;DHT22;67961;43.460;3.762;2023-07-31T10:11:46;33.80;31.60
78647;DHT22;67961;43.460;3.762;2023-07-31T10:14:18;34.00;31.60
78647;DHT22;67961;43.460;3.762;2023-07-31T10:16:45;34.30;31.20
78647;DHT22;67961;43.460;3.762;2023-07-31T10:19:10;34.40;31.50
78647;DHT22;67961;43.460;3.762;2023-07-31T10:21:37;34.30;32.70
78647;DHT22;67961;43.460;3.762;2023-07-31T10:24:04;34.20;32.80
78647;DHT22;67961;43.460;3.762;2023-07-31T10:26:31;34.00;31.90
78647;DHT22;67961;43.460;3.762;2023-07-31T10:28:59;33.90;31.90
78647;DHT22;67961;43.460;3.762;2023-07-31T10:31:27;33.70;31.40
78647;DHT22;67961;43.460;3.762;2023-07-31T10:33:54;33.00;33.50
78647;DHT22;67961;43.460;3.762;2023-07-31T10:36:21;33.10;33.60
78647;DHT22;67961;43.460;3.762;2023-07-31T10:38:49;33.10;32.30
78647;DHT22;67961;43.460;3.762;2023-07-31T10:41:16;32.50;36.90
78647;DHT22;67961;43.460;3.762;2023-07-31T10:43:42;31.60;38.10
78647;DHT22;67961;43.460;3.762;2023-07-31T10:46:11;30.60;39.20
78647;DHT22;67961;43.460;3.762;2023-07-31T10:48:37;30.30;39.80
78647;DHT22;67961;43.460;3.762;2023-07-31T10:51:08;29.70;40.00
78647;DHT22;67961;43.460;3.762;2023-07-31T10:53:34;29.30;41.70
78647;DHT22;67961;43.460;3.762;2023-07-31T10:56:08;29.00;41.80
78647;DHT22;67961;43.460;3.762;2023-07-31T10:58:35;28.90;41.40
78647;DHT22;67961;43.460;3.762;2023-07-31T11:01:03;29.00;41.30
78647;DHT22;67961;43.460;3.762;2023-07-31T11:03:49;29.00;40.20
78647;DHT22;67961;43.460;3.762;2023-07-31T11:06:17;29.10;40.10
78647;DHT22;67961;43.460;3.762;2023-07-31T11:08:44;29.10;40.30
78647;DHT22;67961;43.460;3.762;2023-07-31T11:11:15;29.00;41.60
78647;DHT22;67961;43.460;3.762;2023-07-31T11:13:54;28.90;40.40
78647;DHT22;67961;43.460;3.762;2023-07-31T11:16:21;28.90;39.20
78647;DHT22;67961;43.460;3.762;2023-07-31T11:18:48;28.90;40.00
78647;DHT22;67961;43.460;3.762;2023-07-31T11:21:18;29.10;40.30
78647;DHT22;67961;43.460;3.762;2023-07-31T11:23:50;29.20;39.90
78647;DHT22;67961;43.460;3.762;2023-07-31T11:26:16;29.40;40.20
78647;DHT22;67961;43.460;3.762;2023-07-31T11:28:42;29.10;40.40
78647;DHT22;67961;43.460;3.762;2023-07-31T11:31:11;29.30;40.70
78647;DHT22;67961;43.460;3.762;2023-07-31T11:33:37;29.30;40.40
78647;DHT22;67961;43.460;3.762;2023-07-31T11:36:02;29.20;41.30
78647;DHT22;67961;43.460;3.762;2023-07-31T11:38:30;29.20;41.40
78647;DHT22;67961;43.460;3.762;2023-07-31T11:41:01;29.00;43.20
78647;DHT22;67961;43.460;3.762;2023-07-31T11:43:31;28.50;44.00
78647;DHT22;67961;43.460;3.762;2023-07-31T11:45:59;28.40;43.70
78647;DHT22;67961;43.460;3.762;2023-07-31T11:48:25;28.90;42.50
78647;DHT22;67961;43.460;3.762;2023-07-31T11:51:00;29.10;42.60
78647;DHT22;67961;43.460;3.762;2023-07-31T11:53:45;29.10;42.90
78647;DHT22;67961;43.460;3.762;2023-07-31T11:56:14;28.90;42.20
78647;DHT22;67961;43.460;3.762;2023-07-31T11:58:43;28.70;43.10
78647;DHT22;67961;43.460;3.762;2023-07-31T12:01:09;28.60;43.50
78647;DHT22;67961;43.460;3.762;2023-07-31T12:03:35;28.50;42.70
78647;DHT22;67961;43.460;3.762;2023-07-31T12:06:01;28.80;41.70
78647;DHT22;67961;43.460;3.762;2023-07-31T12:08:27;28.90;41.40
78647;DHT22;67961;43.460;3.762;2023-07-31T12:10:54;28.80;40.00
78647;DHT22;67961;43.460;3.762;2023-07-31T12:13:24;28.90;41.40
78647;DHT22;67961;43.460;3.762;2023-07-31T12:15:58;28.90;41.70
78647;DHT22;67961;43.460;3.762;2023-07-31T12:18:27;28.90;42.80
78647;DHT22;67961;43.460;3.762;2023-07-31T12:21:00;29.20;42.90
78647;DHT22;67961;43.460;3.762;2023-07-31T12:26:12;29.20;43.20
78647;DHT22;67961;43.460;3.762;2023-07-31T12:28:49;29.10;43.20
78647;DHT22;67961;43.460;3.762;2023-07-31T12:31:19;29.10;42.20
78647;DHT22;67961;43.460;3.762;2023-07-31T12:33:48;28.80;42.50
78647;DHT22;67961;43.460;3.762;2023-07-31T12:36:18;28.90;42.80
78647;DHT22;67961;43.460;3.762;2023-07-31T12:38:44;28.90;43.00
78647;DHT22;67961;43.460;3.762;2023-07-31T12:41:11;28.80;41.60
78647;DHT22;67961;43.460;3.762;2023-07-31T12:43:40;29.00;41.70
78647;DHT22;67961;43.460;3.762;2023-07-31T12:46:07;29.00;41.00
78647;DHT22;67961;43.460;3.762;2023-07-31T12:48:37;28.90;41.50
78647;DHT22;67961;43.460;3.762;2023-07-31T12:51:03;28.80;41.60
78647;DHT22;67961;43.460;3.762;2023-07-31T12:53:29;28.70;41.60
78647;DHT22;67961;43.460;3.762;2023-07-31T12:55:58;28.60;40.90
78647;DHT22;67961;43.460;3.762;2023-07-31T12:58:24;28.60;41.30
78647;DHT22;67961;43.460;3.762;2023-07-31T13:00:50;28.60;41.20
78647;DHT22;67961;43.460;3.762;2023-07-31T13:03:15;28.80;40.90
78647;DHT22;67961;43.460;3.762;2023-07-31T13:05:41;28.90;41.80
78647;DHT22;67961;43.460;3.762;2023-07-31T13:08:07;28.90;41.90
78647;DHT22;67961;43.460;3.762;2023-07-31T13:10:32;28.90;41.90
78647;DHT22;67961;43.460;3.762;2023-07-31T13:12:58;29.10;41.30
78647;DHT22;67961;43.460;3.762;2023-07-31T13:15:24;28.90;41.80
78647;DHT22;67961;43.460;3.762;2023-07-31T13:17:49;28.90;41.90
78647;DHT22;67961;43.460;3.762;2023-07-31T13:20:15;28.90;41.80
78647;DHT22;67961;43.460;3.762;2023-07-31T13:22:41;28.90;41.30
78647;DHT22;67961;43.460;3.762;2023-07-31T13:25:07;28.90;42.70
78647;DHT22;67961;43.460;3.762;2023-07-31T13:27:34;28.90;42.50
78647;DHT22;67961;43.460;3.762;2023-07-31T13:30:00;28.90;42.50
78647;DHT22;67961;43.460;3.762;2023-07-31T13:32:25;28.90;42.40
78647;DHT22;67961;43.460;3.762;2023-07-31T13:34:51;28.90;41.70
78647;DHT22;67961;43.460;3.762;2023-07-31T13:37:17;29.00;42.20
78647;DHT22;67961;43.460;3.762;2023-07-31T13:39:42;29.20;42.20
78647;DHT22;67961;43.460;3.762;2023-07-31T13:42:09;29.10;42.50
78647;DHT22;67961;43.460;3.762;2023-07-31T13:44:38;29.20;42.50
78647;DHT22;67961;43.460;3.762;2023-07-31T13:47:03;29.00;42.80
78647;DHT22;67961;43.460;3.762;2023-07-31T13:49:29;29.10;43.50
78647;DHT22;67961;43.460;3.762;2023-07-31T13:51:56;29.20;43.30
78647;DHT22;67961;43.460;3.762;2023-07-31T13:54:23;29.20;44.80
78647;DHT22;67961;43.460;3.762;2023-07-31T13:56:49;29.30;43.80
78647;DHT22;67961;43.460;3.762;2023-07-31T13:59:14;29.40;43.60
78647;DHT22;67961;43.460;3.762;2023-07-31T14:01:42;29.50;43.30
78647;DHT22;67961;43.460;3.762;2023-07-31T14:04:08;29.50;43.50
78647;DHT22;67961;43.460;3.762;2023-07-31T14:06:33;29.50;43.90
78647;DHT22;67961;43.460;3.762;2023-07-31T14:08:59;29.60;44.10
78647;DHT22;67961;43.460;3.762;2023-07-31T14:11:25;29.50;44.40
78647;DHT22;67961;43.460;3.762;2023-07-31T14:13:51;29.40;45.30
78647;DHT22;67961;43.460;3.762;2023-07-31T14:16:16;29.30;45.20
78647;DHT22;67961;43.460;3.762;2023-07-31T14:18:43;29.30;45.70
78647;DHT22;67961;43.460;3.762;2023-07-31T14:21:08;29.40;44.20
78647;DHT22;67961;43.460;3.762;2023-07-31T14:23:34;29.50;43.90
78647;DHT22;67961;43.460;3.762;2023-07-31T14:26:00;29.60;42.10
78647;DHT22;67961;43.460;3.762;2023-07-31T14:28:25;29.90;41.40
78647;DHT22;67961;43.460;3.762;2023-07-31T14:30:51;29.90;40.20
78647;DHT22;67961;43.460;3.762;2023-07-31T14:33:17;30.00;40.40
78647;DHT22;67961;43.460;3.762;2023-07-31T14:35:43;29.90;40.10
78647;DHT22;67961;43.460;3.762;2023-07-31T14:38:08;30.10;38.30
78647;DHT22;67961;43.460;3.762;2023-07-31T14:40:34;30.50;38.00
78647;DHT22;67961;43.460;3.762;2023-07-31T14:43:00;30.70;37.70
78647;DHT22;67961;43.460;3.762;2023-07-31T14:45:25;31.10;36.40
78647;DHT22;67961;43.460;3.762;2023-07-31T14:47:51;31.30;36.00
78647;DHT22;67961;43.460;3.762;2023-07-31T14:50:17;31.30;35.90
78647;DHT22;67961;43.460;3.762;2023-07-31T14:52:42;31.40;35.70
78647;DHT22;67961;43.460;3.762;2023-07-31T14:55:08;31.30;35.60
78647;DHT22;67961;43.460;3.762;2023-07-31T14:57:35;31.50;35.40
78647;DHT22;67961;43.460;3.762;2023-07-31T15:00:00;31.50;35.20
78647;DHT22;67961;43.460;3.762;2023-07-31T15:02:26;31.50;35.30
78647;DHT22;67961;43.460;3.762;2023-07-31T15:04:53;31.50;35.20
78647;DHT22;67961;43.460;3.762;2023-07-31T15:07:18;31.50;34.90
78647;DHT22;67961;43.460;3.762;2023-07-31T15:09:44;31.60;35.00
78647;DHT22;67961;43.460;3.762;2023-07-31T15:12:10;31.70;34.70
78647;DHT22;67961;43.460;3.762;2023-07-31T15:14:35;31.80;34.50
78647;DHT22;67961;43.460;3.762;2023-07-31T15:17:01;31.70;34.70
78647;DHT22;67961;43.460;3.762;2023-07-31T15:19:27;31.60;35.10
78647;DHT22;67961;43.460;3.762;2023-07-31T15:21:54;31.70;35.10
78647;DHT22;67961;43.460;3.762;2023-07-31T15:24:20;31.60;34.70
78647;DHT22;67961;43.460;3.762;2023-07-31T15:26:46;31.70;34.90
78647;DHT22;67961;43.460;3.762;2023-07-31T15:29:12;31.80;35.00
78647;DHT22;67961;43.460;3.762;2023-07-31T15:31:43;31.70;34.60
78647;DHT22;67961;43.460;3.762;2023-07-31T15:34:09;31.70;35.10
78647;DHT22;67961;43.460;3.762;2023-07-31T15:36:34;31.60;35.10
78647;DHT22;67961;43.460;3.762;2023-07-31T15:39:00;31.60;34.70
78647;DHT22;67961;43.460;3.762;2023-07-31T15:41:26;31.60;34.80